sensor_id;sensor_type;location;lat;lon;timestamp;P1;durP1;ratioP1;P2;durP2;ratioP2
18274;SDS011;19470;49.322;7.218;2024-03-08T00:00:58;27.50;;;14.52;;
18274;SDS011;19470;49.322;7.218;2024-03-08T00:03:24;24.65;;;13.88;;
18274;SDS011;19470;49.322;7.218;2024-03-08T00:05:51;28.80;;;14.68;;
18274;SDS011;19470;49.322;7.218;2024-03-08T00:08:18;28.75;;;14.10;;
18274;SDS011;19470;49.322;7.218;2024-03-08T00:10:44;27.63;;;15.35;;
18274;SDS011;19470;49.322;7.218;2024-03-08T00:13:11;26.05;;;14.00;;
18274;SDS011;19470;49.322;7.218;2024-03-08T00:15:37;25.10;;;14.02;;
18274;SDS011;19470;49.322;7.218;2024-03-08T00:18:05;26.33;;;13.50;;
18274;SDS011;19470;49.322;7.218;2024-03-08T00:20:32;24.13;;;13.85;;
18274;SDS011;19470;49.322;7.218;2024-03-08T00:22:58;25.58;;;14.43;;
18274;SDS011;19470;49.322;7.218;2024-03-08T00:25:25;23.58;;;13.65;;
18274;SDS011;19470;49.322;7.218;2024-03-08T00:27:52;26.35;;;14.35;;
18274;SDS011;19470;49.322;7.218;2024-03-08T00:30:20;25.02;;;13.60;;
18274;SDS011;19470;49.322;7.218;2024-03-08T00:32:47;26.13;;;13.60;;
18274;SDS011;19470;49.322;7.218;2024-03-08T00:35:15;27.08;;;14.75;;
18274;SDS011;19470;49.322;7.218;2024-03-08T00:37:43;27.08;;;14.65;;
18274;SDS011;19470;49.322;7.218;2024-03-08T00:40:12;26.05;;;14.57;;
18274;SDS011;19470;49.322;7.218;2024-03-08T00:42:39;29.15;;;14.20;;
18274;SDS011;19470;49.322;7.218;2024-03-08T00:45:06;27.02;;;14.85;;
18274;SDS011;19470;49.322;7.218;2024-03-08T00:47:35;23.75;;;14.20;;
18274;SDS011;19470;49.322;7.218;2024-03-08T00:50:01;28.33;;;15.07;;
18274;SDS011;19470;49.322;7.218;2024-03-08T00:52:31;23.92;;;13.85;;
18274;SDS011;19470;49.322;7.218;2024-03-08T00:54:59;26.27;;;15.02;;
18274;SDS011;19470;49.322;7.218;2024-03-08T00:57:26;25.73;;;15.02;;
18274;SDS011;19470;49.322;7.218;2024-03-08T00:59:53;27.60;;;14.80;;
18274;SDS011;19470;49.322;7.218;2024-03-08T01:02:19;25.33;;;14.52;;
18274;SDS011;19470;49.322;7.218;2024-03-08T01:04:48;26.52;;;13.60;;
18274;SDS011;19470;49.322;7.218;2024-03-08T01:07:15;27.98;;;14.45;;
18274;SDS011;19470;49.322;7.218;2024-03-08T01:09:43;26.13;;;14.57;;
18274;SDS011;19470;49.322;7.218;2024-03-08T01:12:09;28.58;;;14.90;;
18274;SDS011;19470;49.322;7.218;2024-03-08T01:14:36;25.85;;;14.80;;
18274;SDS011;19470;49.322;7.218;2024-03-08T01:17:02;30.20;;;14.63;;
18274;SDS011;19470;49.322;7.218;2024-03-08T01:19:29;27.90;;;14.55;;
18274;SDS011;19470;49.322;7.218;2024-03-08T01:21:57;28.92;;;15.80;;
18274;SDS011;19470;49.322;7.218;2024-03-08T01:24:23;27.88;;;15.30;;
18274;SDS011;19470;49.322;7.218;2024-03-08T01:26:52;26.65;;;14.93;;
18274;SDS011;19470;49.322;7.218;2024-03-08T01:29:18;29.85;;;14.43;;
18274;SDS011;19470;49.322;7.218;2024-03-08T01:31:45;63.10;;;30.90;;
18274;SDS011;19470;49.322;7.218;2024-03-08T01:34:11;51.40;;;26.33;;
18274;SDS011;19470;49.322;7.218;2024-03-08T01:36:37;28.88;;;15.88;;
18274;SDS011;19470;49.322;7.218;2024-03-08T01:39:04;33.53;;;16.38;;
18274;SDS011;19470;49.322;7.218;2024-03-08T01:41:32;30.92;;;16.13;;
18274;SDS011;19470;49.322;7.218;2024-03-08T01:44:01;31.70;;;15.50;;
18274;SDS011;19470;49.322;7.218;2024-03-08T01:46:28;29.27;;;16.63;;
18274;SDS011;19470;49.322;7.218;2024-03-08T01:48:55;29.58;;;16.30;;
18274;SDS011;19470;49.322;7.218;2024-03-08T01:51:22;32.15;;;16.85;;
18274;SDS011;19470;49.322;7.218;2024-03-08T01:53:49;30.42;;;16.73;;
18274;SDS011;19470;49.322;7.218;2024-03-08T01:56:16;27.65;;;15.40;;
18274;SDS011;19470;49.322;7.218;2024-03-08T01:58:43;29.48;;;13.77;;
18274;SDS011;19470;49.322;7.218;2024-03-08T02:01:13;32.40;;;16.05;;
18274;SDS011;19470;49.322;7.218;2024-03-08T02:03:40;28.73;;;15.00;;
18274;SDS011;19470;49.322;7.218;2024-03-08T02:06:27;27.88;;;15.38;;
18274;SDS011;19470;49.322;7.218;2024-03-08T02:08:53;25.88;;;14.60;;
18274;SDS011;19470;49.322;7.218;2024-03-08T02:11:20;30.35;;;15.55;;
18274;SDS011;19470;49.322;7.218;2024-03-08T02:13:47;27.13;;;15.15;;
18274;SDS011;19470;49.322;7.218;2024-03-08T02:16:19;27.08;;;15.88;;
18274;SDS011;19470;49.322;7.218;2024-03-08T02:18:46;27.15;;;15.02;;
18274;SDS011;19470;49.322;7.218;2024-03-08T02:21:14;29.30;;;16.90;;
18274;SDS011;19470;49.322;7.218;2024-03-08T02:23:43;29.13;;;16.27;;
18274;SDS011;19470;49.322;7.218;2024-03-08T02:26:10;32.25;;;16.38;;
18274;SDS011;19470;49.322;7.218;2024-03-08T02:28:36;28.85;;;15.95;;
18274;SDS011;19470;49.322;7.218;2024-03-08T02:31:03;28.20;;;16.17;;
18274;SDS011;19470;49.322;7.218;2024-03-08T02:33:33;31.02;;;16.42;;
18274;SDS011;19470;49.322;7.218;2024-03-08T02:36:00;29.75;;;15.52;;
18274;SDS011;19470;49.322;7.218;2024-03-08T02:38:27;28.90;;;16.02;;
18274;SDS011;19470;49.322;7.218;2024-03-08T02:40:54;31.13;;;16.10;;
18274;SDS011;19470;49.322;7.218;2024-03-08T02:43:21;31.10;;;16.80;;
18274;SDS011;19470;49.322;7.218;2024-03-08T02:45:49;32.92;;;16.92;;
18274;SDS011;19470;49.322;7.218;2024-03-08T02:48:17;32.42;;;16.75;;
18274;SDS011;19470;49.322;7.218;2024-03-08T02:50:44;30.63;;;16.65;;
18274;SDS011;19470;49.322;7.218;2024-03-08T02:53:11;34.65;;;16.98;;
18274;SDS011;19470;49.322;7.218;2024-03-08T02:55:40;29.73;;;15.85;;
18274;SDS011;19470;49.322;7.218;2024-03-08T02:58:07;29.20;;;16.05;;
18274;SDS011;19470;49.322;7.218;2024-03-08T03:00:35;32.42;;;17.85;;
18274;SDS011;19470;49.322;7.218;2024-03-08T03:03:02;34.85;;;18.50;;
18274;SDS011;19470;49.322;7.218;2024-03-08T03:05:29;31.10;;;17.58;;
18274;SDS011;19470;49.322;7.218;2024-03-08T03:07:56;30.50;;;16.55;;
18274;SDS011;19470;49.322;7.218;2024-03-08T03:10:23;31.63;;;16.65;;
18274;SDS011;19470;49.322;7.218;2024-03-08T03:12:51;31.30;;;16.88;;
18274;SDS011;19470;49.322;7.218;2024-03-08T03:15:18;33.25;;;16.90;;
18274;SDS011;19470;49.322;7.218;2024-03-08T03:17:46;30.85;;;17.73;;
18274;SDS011;19470;49.322;7.218;2024-03-08T03:20:13;30.40;;;16.73;;
18274;SDS011;19470;49.322;7.218;2024-03-08T03:22:47;30.88;;;17.58;;
18274;SDS011;19470;49.322;7.218;2024-03-08T03:25:16;31.33;;;16.67;;
18274;SDS011;19470;49.322;7.218;2024-03-08T03:27:48;34.08;;;17.17;;
18274;SDS011;19470;49.322;7.218;2024-03-08T03:30:16;32.78;;;16.95;;
18274;SDS011;19470;49.322;7.218;2024-03-08T03:32:46;31.65;;;17.48;;
18274;SDS011;19470;49.322;7.218;2024-03-08T03:35:13;30.35;;;17.48;;
18274;SDS011;19470;49.322;7.218;2024-03-08T03:37:41;36.28;;;17.33;;
18274;SDS011;19470;49.322;7.218;2024-03-08T03:40:10;35.53;;;16.65;;
18274;SDS011;19470;49.322;7.218;2024-03-08T03:42:38;30.38;;;16.45;;
18274;SDS011;19470;49.322;7.218;2024-03-08T03:45:05;33.53;;;17.70;;
18274;SDS011;19470;49.322;7.218;2024-03-08T03:47:33;31.90;;;17.20;;
18274;SDS011;19470;49.322;7.218;2024-03-08T03:49:59;27.02;;;15.90;;
18274;SDS011;19470;49.322;7.218;2024-03-08T03:52:28;31.23;;;16.63;;
18274;SDS011;19470;49.322;7.218;2024-03-08T03:54:54;30.70;;;16.90;;
18274;SDS011;19470;49.322;7.218;2024-03-08T03:57:21;31.48;;;17.95;;
18274;SDS011;19470;49.322;7.218;2024-03-08T03:59:48;31.35;;;17.20;;
18274;SDS011;19470;49.322;7.218;2024-03-08T04:02:16;35.40;;;17.42;;
18274;SDS011;19470;49.322;7.218;2024-03-08T04:04:44;35.03;;;17.98;;
18274;SDS011;19470;49.322;7.218;2024-03-08T04:07:10;30.05;;;16.63;;
18274;SDS011;19470;49.322;7.218;2024-03-08T04:09:37;34.53;;;17.05;;
18274;SDS011;19470;49.322;7.218;2024-03-08T04:12:03;32.90;;;16.92;;
18274;SDS011;19470;49.322;7.218;2024-03-08T04:14:30;30.20;;;16.67;;
18274;SDS011;19470;49.322;7.218;2024-03-08T04:16:57;32.22;;;16.05;;
18274;SDS011;19470;49.322;7.218;2024-03-08T04:19:22;31.45;;;17.17;;
18274;SDS011;19470;49.322;7.218;2024-03-08T04:21:52;30.15;;;16.45;;
18274;SDS011;19470;49.322;7.218;2024-03-08T04:24:19;29.80;;;16.88;;
18274;SDS011;19470;49.322;7.218;2024-03-08T04:26:45;30.40;;;16.40;;
18274;SDS011;19470;49.322;7.218;2024-03-08T04:29:12;32.88;;;16.92;;
18274;SDS011;19470;49.322;7.218;2024-03-08T04:31:39;39.75;;;20.85;;
18274;SDS011;19470;49.322;7.218;2024-03-08T04:34:06;84.22;;;36.42;;
18274;SDS011;19470;49.322;7.218;2024-03-08T04:36:33;33.70;;;17.67;;
18274;SDS011;19470;49.322;7.218;2024-03-08T04:39:02;33.53;;;16.80;;
18274;SDS011;19470;49.322;7.218;2024-03-08T04:41:29;33.90;;;16.35;;
18274;SDS011;19470;49.322;7.218;2024-03-08T04:43:56;29.55;;;16.25;;
18274;SDS011;19470;49.322;7.218;2024-03-08T04:46:23;29.98;;;16.42;;
18274;SDS011;19470;49.322;7.218;2024-03-08T04:48:50;31.27;;;16.20;;
18274;SDS011;19470;49.322;7.218;2024-03-08T04:51:16;44.30;;;22.02;;
18274;SDS011;19470;49.322;7.218;2024-03-08T04:53:44;77.63;;;36.22;;
18274;SDS011;19470;49.322;7.218;2024-03-08T04:56:12;52.55;;;25.13;;
18274;SDS011;19470;49.322;7.218;2024-03-08T04:58:38;38.67;;;20.98;;
18274;SDS011;19470;49.322;7.218;2024-03-08T05:01:05;30.92;;;17.35;;
18274;SDS011;19470;49.322;7.218;2024-03-08T05:03:35;33.03;;;16.58;;
18274;SDS011;19470;49.322;7.218;2024-03-08T05:06:01;32.63;;;16.57;;
18274;SDS011;19470;49.322;7.218;2024-03-08T05:08:28;32.33;;;17.00;;
18274;SDS011;19470;49.322;7.218;2024-03-08T05:10:55;39.20;;;18.83;;
18274;SDS011;19470;49.322;7.218;2024-03-08T05:13:23;33.50;;;17.23;;
18274;SDS011;19470;49.322;7.218;2024-03-08T05:15:50;35.57;;;18.27;;
18274;SDS011;19470;49.322;7.218;2024-03-08T05:18:17;34.43;;;18.63;;
18274;SDS011;19470;49.322;7.218;2024-03-08T05:20:43;29.47;;;16.57;;
18274;SDS011;19470;49.322;7.218;2024-03-08T05:23:10;35.08;;;18.25;;
18274;SDS011;19470;49.322;7.218;2024-03-08T05:25:36;37.13;;;17.57;;
18274;SDS011;19470;49.322;7.218;2024-03-08T05:28:03;33.23;;;17.37;;
18274;SDS011;19470;49.322;7.218;2024-03-08T05:30:32;31.47;;;17.13;;
18274;SDS011;19470;49.322;7.218;2024-03-08T05:32:58;35.20;;;18.33;;
18274;SDS011;19470;49.322;7.218;2024-03-08T05:35:25;32.10;;;16.95;;
18274;SDS011;19470;49.322;7.218;2024-03-08T05:37:51;33.23;;;17.93;;
18274;SDS011;19470;49.322;7.218;2024-03-08T05:40:18;29.17;;;16.35;;
18274;SDS011;19470;49.322;7.218;2024-03-08T05:42:44;33.22;;;17.83;;
18274;SDS011;19470;49.322;7.218;2024-03-08T05:45:11;33.03;;;17.40;;
18274;SDS011;19470;49.322;7.218;2024-03-08T05:47:40;31.03;;;17.47;;
18274;SDS011;19470;49.322;7.218;2024-03-08T05:50:07;33.28;;;18.45;;
18274;SDS011;19470;49.322;7.218;2024-03-08T05:52:36;32.07;;;17.33;;
18274;SDS011;19470;49.322;7.218;2024-03-08T05:55:03;36.00;;;17.30;;
18274;SDS011;19470;49.322;7.218;2024-03-08T06:00:23;96.27;;;41.83;;
18274;SDS011;19470;49.322;7.218;2024-03-08T06:02:51;68.00;;;32.75;;
18274;SDS011;19470;49.322;7.218;2024-03-08T06:05:17;49.38;;;26.40;;
18274;SDS011;19470;49.322;7.218;2024-03-08T06:07:44;32.30;;;17.67;;
18274;SDS011;19470;49.322;7.218;2024-03-08T06:10:10;32.67;;;17.42;;
18274;SDS011;19470;49.322;7.218;2024-03-08T06:12:38;29.75;;;15.98;;
18274;SDS011;19470;49.322;7.218;2024-03-08T06:15:06;28.17;;;15.63;;
18274;SDS011;19470;49.322;7.218;2024-03-08T06:17:33;32.90;;;16.80;;
18274;SDS011;19470;49.322;7.218;2024-03-08T06:20:01;30.65;;;16.65;;
18274;SDS011;19470;49.322;7.218;2024-03-08T06:22:29;32.03;;;16.23;;
18274;SDS011;19470;49.322;7.218;2024-03-08T06:24:55;32.53;;;16.60;;
18274;SDS011;19470;49.322;7.218;2024-03-08T06:27:22;45.80;;;23.60;;
18274;SDS011;19470;49.322;7.218;2024-03-08T06:29:48;31.30;;;16.23;;
18274;SDS011;19470;49.322;7.218;2024-03-08T06:32:15;40.78;;;19.98;;
18274;SDS011;19470;49.322;7.218;2024-03-08T06:34:41;36.70;;;19.13;;
18274;SDS011;19470;49.322;7.218;2024-03-08T06:37:09;31.80;;;15.23;;
18274;SDS011;19470;49.322;7.218;2024-03-08T06:39:36;29.83;;;15.97;;
18274;SDS011;19470;49.322;7.218;2024-03-08T06:42:02;31.85;;;15.52;;
18274;SDS011;19470;49.322;7.218;2024-03-08T06:44:29;32.13;;;16.83;;
18274;SDS011;19470;49.322;7.218;2024-03-08T06:46:56;26.80;;;15.63;;
18274;SDS011;19470;49.322;7.218;2024-03-08T06:49:23;25.88;;;15.02;;
18274;SDS011;19470;49.322;7.218;2024-03-08T06:51:51;30.95;;;15.15;;
18274;SDS011;19470;49.322;7.218;2024-03-08T06:54:19;27.75;;;15.02;;
18274;SDS011;19470;49.322;7.218;2024-03-08T06:56:46;24.67;;;14.55;;
18274;SDS011;19470;49.322;7.218;2024-03-08T06:59:13;38.58;;;20.15;;
18274;SDS011;19470;49.322;7.218;2024-03-08T07:01:39;31.95;;;16.67;;
18274;SDS011;19470;49.322;7.218;2024-03-08T07:04:06;42.83;;;20.35;;
18274;SDS011;19470;49.322;7.218;2024-03-08T07:06:33;23.73;;;10.40;;
18274;SDS011;19470;49.322;7.218;2024-03-08T07:08:59;27.05;;;14.48;;
18274;SDS011;19470;49.322;7.218;2024-03-08T07:11:27;26.60;;;14.60;;
18274;SDS011;19470;49.322;7.218;2024-03-08T07:13:53;28.05;;;14.15;;
18274;SDS011;19470;49.322;7.218;2024-03-08T07:16:20;26.85;;;14.43;;
18274;SDS011;19470;49.322;7.218;2024-03-08T07:18:47;29.05;;;14.88;;
18274;SDS011;19470;49.322;7.218;2024-03-08T07:21:17;24.08;;;13.32;;
18274;SDS011;19470;49.322;7.218;2024-03-08T07:23:43;25.33;;;14.45;;
18274;SDS011;19470;49.322;7.218;2024-03-08T07:26:29;28.67;;;14.98;;
18274;SDS011;19470;49.322;7.218;2024-03-08T07:28:56;32.30;;;16.83;;
18274;SDS011;19470;49.322;7.218;2024-03-08T07:31:24;30.33;;;13.32;;
18274;SDS011;19470;49.322;7.218;2024-03-08T07:33:59;27.60;;;14.13;;
18274;SDS011;19470;49.322;7.218;2024-03-08T07:36:26;23.45;;;13.50;;
18274;SDS011;19470;49.322;7.218;2024-03-08T07:38:52;28.75;;;13.98;;
18274;SDS011;19470;49.322;7.218;2024-03-08T07:41:19;26.00;;;14.70;;
18274;SDS011;19470;49.322;7.218;2024-03-08T07:43:47;24.27;;;14.40;;
18274;SDS011;19470;49.322;7.218;2024-03-08T07:46:13;30.90;;;13.48;;
18274;SDS011;19470;49.322;7.218;2024-03-08T07:48:42;31.27;;;15.77;;
18274;SDS011;19470;49.322;7.218;2024-03-08T07:51:10;25.55;;;13.60;;
18274;SDS011;19470;49.322;7.218;2024-03-08T07:53:37;27.42;;;13.27;;
18274;SDS011;19470;49.322;7.218;2024-03-08T07:56:06;25.13;;;12.65;;
18274;SDS011;19470;49.322;7.218;2024-03-08T07:58:34;26.30;;;14.60;;
18274;SDS011;19470;49.322;7.218;2024-03-08T08:01:02;26.67;;;14.10;;
18274;SDS011;19470;49.322;7.218;2024-03-08T08:03:29;26.98;;;14.68;;
18274;SDS011;19470;49.322;7.218;2024-03-08T08:05:56;22.67;;;12.82;;
18274;SDS011;19470;49.322;7.218;2024-03-08T08:08:22;24.63;;;13.57;;
18274;SDS011;19470;49.322;7.218;2024-03-08T08:10:51;23.58;;;13.00;;
18274;SDS011;19470;49.322;7.218;2024-03-08T08:13:17;24.33;;;13.88;;
18274;SDS011;19470;49.322;7.218;2024-03-08T08:15:44;23.02;;;12.68;;
18274;SDS011;19470;49.322;7.218;2024-03-08T08:18:12;23.85;;;13.13;;
18274;SDS011;19470;49.322;7.218;2024-03-08T08:20:39;23.02;;;14.25;;
18274;SDS011;19470;49.322;7.218;2024-03-08T08:23:05;23.30;;;14.40;;
18274;SDS011;19470;49.322;7.218;2024-03-08T08:25:32;23.25;;;13.75;;
18274;SDS011;19470;49.322;7.218;2024-03-08T08:27:59;23.33;;;13.93;;
18274;SDS011;19470;49.322;7.218;2024-03-08T08:30:27;23.65;;;13.30;;
18274;SDS011;19470;49.322;7.218;2024-03-08T08:32:53;21.80;;;13.50;;
18274;SDS011;19470;49.322;7.218;2024-03-08T08:35:27;30.27;;;16.05;;
18274;SDS011;19470;49.322;7.218;2024-03-08T08:37:53;21.02;;;12.32;;
18274;SDS011;19470;49.322;7.218;2024-03-08T08:40:20;36.63;;;19.40;;
18274;SDS011;19470;49.322;7.218;2024-03-08T08:42:47;23.92;;;13.52;;
18274;SDS011;19470;49.322;7.218;2024-03-08T08:45:14;23.10;;;13.30;;
18274;SDS011;19470;49.322;7.218;2024-03-08T08:47:42;23.02;;;13.60;;
18274;SDS011;19470;49.322;7.218;2024-03-08T08:50:10;24.48;;;13.75;;
18274;SDS011;19470;49.322;7.218;2024-03-08T08:52:38;25.60;;;13.65;;
18274;SDS011;19470;49.322;7.218;2024-03-08T08:55:05;20.55;;;13.07;;
18274;SDS011;19470;49.322;7.218;2024-03-08T08:57:32;22.35;;;13.60;;
18274;SDS011;19470;49.322;7.218;2024-03-08T09:00:00;21.00;;;12.65;;
18274;SDS011;19470;49.322;7.218;2024-03-08T09:02:26;24.58;;;13.10;;
18274;SDS011;19470;49.322;7.218;2024-03-08T09:04:53;23.00;;;11.88;;
18274;SDS011;19470;49.322;7.218;2024-03-08T09:07:19;21.98;;;13.55;;
18274;SDS011;19470;49.322;7.218;2024-03-08T09:09:48;20.98;;;12.20;;
18274;SDS011;19470;49.322;7.218;2024-03-08T09:12:14;21.65;;;12.32;;
18274;SDS011;19470;49.322;7.218;2024-03-08T09:14:41;22.23;;;13.05;;
18274;SDS011;19470;49.322;7.218;2024-03-08T09:17:08;20.55;;;12.55;;
18274;SDS011;19470;49.322;7.218;2024-03-08T09:19:34;21.20;;;12.93;;
18274;SDS011;19470;49.322;7.218;2024-03-08T09:22:01;17.52;;;11.07;;
18274;SDS011;19470;49.322;7.218;2024-03-08T09:24:28;20.67;;;12.90;;
18274;SDS011;19470;49.322;7.218;2024-03-08T09:26:57;25.10;;;13.35;;
18274;SDS011;19470;49.322;7.218;2024-03-08T09:29:24;19.50;;;12.50;;
18274;SDS011;19470;49.322;7.218;2024-03-08T09:31:51;20.33;;;12.35;;
18274;SDS011;19470;49.322;7.218;2024-03-08T09:34:17;19.33;;;11.88;;
18274;SDS011;19470;49.322;7.218;2024-03-08T09:36:44;19.35;;;11.10;;
18274;SDS011;19470;49.322;7.218;2024-03-08T09:39:10;18.55;;;11.52;;
18274;SDS011;19470;49.322;7.218;2024-03-08T09:41:41;18.52;;;12.48;;
18274;SDS011;19470;49.322;7.218;2024-03-08T09:44:10;22.08;;;12.65;;
18274;SDS011;19470;49.322;7.218;2024-03-08T09:46:36;18.65;;;11.93;;
18274;SDS011;19470;49.322;7.218;2024-03-08T09:49:03;19.17;;;12.02;;
18274;SDS011;19470;49.322;7.218;2024-03-08T09:51:30;20.65;;;12.52;;
18274;SDS011;19470;49.322;7.218;2024-03-08T09:54:00;19.33;;;11.45;;
18274;SDS011;19470;49.322;7.218;2024-03-08T09:56:29;18.85;;;12.20;;
18274;SDS011;19470;49.322;7.218;2024-03-08T09:58:58;19.55;;;12.02;;
18274;SDS011;19470;49.322;7.218;2024-03-08T10:01:59;19.80;;;12.52;;
18274;SDS011;19470;49.322;7.218;2024-03-08T10:04:27;21.70;;;11.93;;
18274;SDS011;19470;49.322;7.218;2024-03-08T10:06:55;20.08;;;17.65;;
18274;SDS011;19470;49.322;7.218;2024-03-08T10:09:24;19.42;;;12.60;;
18274;SDS011;19470;49.322;7.218;2024-03-08T10:11:53;18.15;;;12.02;;
18274;SDS011;19470;49.322;7.218;2024-03-08T10:14:20;17.35;;;11.98;;
18274;SDS011;19470;49.322;7.218;2024-03-08T10:16:47;17.85;;;12.32;;
18274;SDS011;19470;49.322;7.218;2024-03-08T10:19:15;18.02;;;11.93;;
18274;SDS011;19470;49.322;7.218;2024-03-08T10:21:47;16.90;;;10.80;;
18274;SDS011;19470;49.322;7.218;2024-03-08T10:24:14;18.75;;;11.23;;
18274;SDS011;19470;49.322;7.218;2024-03-08T10:26:40;19.00;;;12.50;;
18274;SDS011;19470;49.322;7.218;2024-03-08T10:29:08;21.02;;;13.38;;
18274;SDS011;19470;49.322;7.218;2024-03-08T10:31:35;19.55;;;12.63;;
18274;SDS011;19470;49.322;7.218;2024-03-08T10:34:01;18.35;;;12.00;;
18274;SDS011;19470;49.322;7.218;2024-03-08T10:36:30;19.90;;;12.90;;
18274;SDS011;19470;49.322;7.218;2024-03-08T10:38:58;20.10;;;12.13;;
18274;SDS011;19470;49.322;7.218;2024-03-08T10:41:27;17.52;;;11.95;;
18274;SDS011;19470;49.322;7.218;2024-03-08T10:44:03;18.20;;;12.27;;
18274;SDS011;19470;49.322;7.218;2024-03-08T10:46:42;19.67;;;12.68;;
18274;SDS011;19470;49.322;7.218;2024-03-08T10:49:26;29.25;;;24.63;;
18274;SDS011;19470;49.322;7.218;2024-03-08T10:52:01;20.73;;;12.15;;
18274;SDS011;19470;49.322;7.218;2024-03-08T10:54:28;19.60;;;17.05;;
18274;SDS011;19470;49.322;7.218;2024-03-08T10:56:56;58.95;;;54.85;;
18274;SDS011;19470;49.322;7.218;2024-03-08T10:59:26;52.22;;;48.35;;
18274;SDS011;19470;49.322;7.218;2024-03-08T11:01:53;74.43;;;69.55;;
18274;SDS011;19470;49.322;7.218;2024-03-08T11:04:20;242.32;;;229.35;;
18274;SDS011;19470;49.322;7.218;2024-03-08T11:06:48;356.70;;;337.27;;
18274;SDS011;19470;49.322;7.218;2024-03-08T11:09:28;399.20;;;375.30;;
18274;SDS011;19470;49.322;7.218;2024-03-08T11:14:50;495.50;;;467.05;;
18274;SDS011;19470;49.322;7.218;2024-03-08T11:17:20;550.20;;;517.85;;
18274;SDS011;19470;49.322;7.218;2024-03-08T11:19:48;574.88;;;540.47;;
18274;SDS011;19470;49.322;7.218;2024-03-08T11:22:20;557.95;;;525.38;;
18274;SDS011;19470;49.322;7.218;2024-03-08T11:24:51;509.17;;;479.50;;
18274;SDS011;19470;49.322;7.218;2024-03-08T11:27:17;393.02;;;369.15;;
18274;SDS011;19470;49.322;7.218;2024-03-08T11:29:46;353.33;;;334.25;;
18274;SDS011;19470;49.322;7.218;2024-03-08T11:32:27;291.77;;;276.40;;
18274;SDS011;19470;49.322;7.218;2024-03-08T11:34:55;404.90;;;379.05;;
18274;SDS011;19470;49.322;7.218;2024-03-08T11:37:22;395.67;;;374.30;;
18274;SDS011;19470;49.322;7.218;2024-03-08T11:39:51;465.27;;;437.55;;
18274;SDS011;19470;49.322;7.218;2024-03-08T11:42:23;329.63;;;311.75;;
18274;SDS011;19470;49.322;7.218;2024-03-08T11:44:51;497.27;;;467.83;;
18274;SDS011;19470;49.322;7.218;2024-03-08T11:47:18;251.38;;;237.93;;
18274;SDS011;19470;49.322;7.218;2024-03-08T11:49:45;283.48;;;268.42;;
18274;SDS011;19470;49.322;7.218;2024-03-08T11:52:13;441.23;;;415.60;;
18274;SDS011;19470;49.322;7.218;2024-03-08T11:54:40;511.77;;;482.33;;
18274;SDS011;19470;49.322;7.218;2024-03-08T11:57:08;569.97;;;536.28;;
18274;SDS011;19470;49.322;7.218;2024-03-08T11:59:35;679.70;;;636.45;;
18274;SDS011;19470;49.322;7.218;2024-03-08T12:02:03;736.70;;;689.45;;
18274;SDS011;19470;49.322;7.218;2024-03-08T12:04:30;789.00;;;737.75;;
18274;SDS011;19470;49.322;7.218;2024-03-08T12:06:59;746.05;;;695.50;;
18274;SDS011;19470;49.322;7.218;2024-03-08T12:09:25;720.72;;;674.17;;
18274;SDS011;19470;49.322;7.218;2024-03-08T12:11:52;756.30;;;707.67;;
18274;SDS011;19470;49.322;7.218;2024-03-08T12:14:20;747.60;;;699.40;;
18274;SDS011;19470;49.322;7.218;2024-03-08T12:16:47;766.45;;;716.50;;
18274;SDS011;19470;49.322;7.218;2024-03-08T12:19:14;795.05;;;743.15;;
18274;SDS011;19470;49.322;7.218;2024-03-08T12:21:41;795.33;;;743.33;;
18274;SDS011;19470;49.322;7.218;2024-03-08T12:24:13;792.78;;;740.97;;
18274;SDS011;19470;49.322;7.218;2024-03-08T12:26:42;789.05;;;737.95;;
18274;SDS011;19470;49.322;7.218;2024-03-08T12:29:15;772.22;;;721.88;;
18274;SDS011;19470;49.322;7.218;2024-03-08T12:31:49;757.78;;;708.65;;
18274;SDS011;19470;49.322;7.218;2024-03-08T12:34:18;769.67;;;719.97;;
18274;SDS011;19470;49.322;7.218;2024-03-08T12:36:45;698.42;;;653.28;;
18274;SDS011;19470;49.322;7.218;2024-03-08T12:39:17;772.38;;;722.72;;
18274;SDS011;19470;49.322;7.218;2024-03-08T12:41:47;762.92;;;713.40;;
18274;SDS011;19470;49.322;7.218;2024-03-08T12:44:14;753.35;;;704.60;;
18274;SDS011;19470;49.322;7.218;2024-03-08T12:46:43;733.03;;;684.58;;
18274;SDS011;19470;49.322;7.218;2024-03-08T12:49:10;648.22;;;607.20;;
18274;SDS011;19470;49.322;7.218;2024-03-08T12:51:37;655.80;;;614.58;;
18274;SDS011;19470;49.322;7.218;2024-03-08T12:54:04;686.08;;;642.40;;
18274;SDS011;19470;49.322;7.218;2024-03-08T12:56:33;678.45;;;634.78;;
18274;SDS011;19470;49.322;7.218;2024-03-08T12:59:00;669.15;;;626.92;;
18274;SDS011;19470;49.322;7.218;2024-03-08T13:01:27;638.20;;;598.63;;
18274;SDS011;19470;49.322;7.218;2024-03-08T13:03:56;664.03;;;621.72;;
18274;SDS011;19470;49.322;7.218;2024-03-08T13:06:23;782.10;;;729.72;;
18274;SDS011;19470;49.322;7.218;2024-03-08T13:08:50;711.17;;;665.80;;
18274;SDS011;19470;49.322;7.218;2024-03-08T13:11:18;678.70;;;628.58;;
18274;SDS011;19470;49.322;7.218;2024-03-08T13:13:45;716.13;;;670.08;;
18274;SDS011;19470;49.322;7.218;2024-03-08T13:16:12;766.35;;;716.80;;
18274;SDS011;19470;49.322;7.218;2024-03-08T13:18:40;798.78;;;746.60;;
18274;SDS011;19470;49.322;7.218;2024-03-08T13:21:09;821.03;;;767.13;;
18274;SDS011;19470;49.322;7.218;2024-03-08T13:23:38;818.47;;;765.08;;
18274;SDS011;19470;49.322;7.218;2024-03-08T13:26:08;776.13;;;725.85;;
18274;SDS011;19470;49.322;7.218;2024-03-08T13:28:37;732.95;;;685.58;;
18274;SDS011;19470;49.322;7.218;2024-03-08T13:31:04;660.92;;;613.22;;
18274;SDS011;19470;49.322;7.218;2024-03-08T13:33:32;543.33;;;511.25;;
18274;SDS011;19470;49.322;7.218;2024-03-08T13:36:01;624.47;;;586.35;;
18274;SDS011;19470;49.322;7.218;2024-03-08T13:38:32;664.67;;;622.40;;
18274;SDS011;19470;49.322;7.218;2024-03-08T13:41:01;739.92;;;692.28;;
18274;SDS011;19470;49.322;7.218;2024-03-08T13:43:27;737.78;;;690.13;;
18274;SDS011;19470;49.322;7.218;2024-03-08T13:45:55;745.35;;;697.38;;
18274;SDS011;19470;49.322;7.218;2024-03-08T13:48:20;752.35;;;703.55;;
18274;SDS011;19470;49.322;7.218;2024-03-08T13:50:47;761.35;;;712.13;;
18274;SDS011;19470;49.322;7.218;2024-03-08T13:53:14;711.88;;;666.20;;
18274;SDS011;19470;49.322;7.218;2024-03-08T13:55:42;700.22;;;654.88;;
18274;SDS011;19470;49.322;7.218;2024-03-08T13:58:08;748.10;;;699.60;;
18274;SDS011;19470;49.322;7.218;2024-03-08T14:00:35;774.88;;;724.92;;
18274;SDS011;19470;49.322;7.218;2024-03-08T14:03:02;783.90;;;732.85;;
18274;SDS011;19470;49.322;7.218;2024-03-08T14:05:30;803.67;;;751.38;;
18274;SDS011;19470;49.322;7.218;2024-03-08T14:07:59;796.15;;;743.88;;
18274;SDS011;19470;49.322;7.218;2024-03-08T14:10:28;822.50;;;768.78;;
18274;SDS011;19470;49.322;7.218;2024-03-08T14:12:57;786.05;;;734.58;;
18274;SDS011;19470;49.322;7.218;2024-03-08T14:15:25;766.40;;;716.90;;
18274;SDS011;19470;49.322;7.218;2024-03-08T14:17:54;692.72;;;648.20;;
18274;SDS011;19470;49.322;7.218;2024-03-08T14:20:22;508.95;;;479.60;;
18274;SDS011;19470;49.322;7.218;2024-03-08T14:22:50;458.83;;;432.00;;
18274;SDS011;19470;49.322;7.218;2024-03-08T14:25:17;385.73;;;364.25;;